QFA123 YSSY-YMML
Flight info
| Callsign | QFA123 |
|---|---|
| Flight time | N/A |
| Altitude | 38000 |
| Route | WOL2/34L WOL H65 LEECE Q29 ML |
| Aircraft | B772/H-SDE2E3FGHIJ5LORVWXY/LB1D1 |
Departure
| Time | N/A |
|---|---|
| Airport | Sydney Kingsford Smith International Airport (YSSY) |
Arrival
| Time | 2026-05-01 08:16 |
|---|---|
| Airport | Melbourne Airport (YMML) |
| Time | Latitude | Longitude | Altitude | Speed | Heading |
|---|---|---|---|---|---|
| 2026-05-01 07:23 | -34.60487 | 150.71608 | 28339 ft | 486 kts | 234° |
| 2026-05-01 07:24 | -34.66388 | 150.61649 | 28337 ft | 484 kts | 236° |
| 2026-05-01 07:24 | -34.70310 | 150.55045 | 28338 ft | 484 kts | 236° |
| 2026-05-01 07:25 | -34.74262 | 150.48416 | 28337 ft | 484 kts | 236° |
| 2026-05-01 07:25 | -34.78224 | 150.41775 | 28339 ft | 484 kts | 236° |
| 2026-05-01 07:26 | -34.82180 | 150.35146 | 28382 ft | 492 kts | 236° |
| 2026-05-01 07:26 | -34.84194 | 150.31764 | 28978 ft | 496 kts | 236° |
| 2026-05-01 07:26 | -34.86199 | 150.28400 | 29889 ft | 493 kts | 236° |
| 2026-05-01 07:26 | -34.88198 | 150.25041 | 30850 ft | 489 kts | 236° |
| 2026-05-01 07:27 | -34.90189 | 150.21696 | 31814 ft | 484 kts | 236° |
| 2026-05-01 07:27 | -34.92162 | 150.18378 | 32723 ft | 481 kts | 237° |
| 2026-05-01 07:27 | -34.94144 | 150.15041 | 33558 ft | 479 kts | 237° |
| 2026-05-01 07:27 | -34.96101 | 150.11745 | 34268 ft | 478 kts | 237° |
| 2026-05-01 07:28 | -34.98038 | 150.08476 | 34980 ft | 474 kts | 236° |
| 2026-05-01 07:28 | -34.99989 | 150.05185 | 35748 ft | 469 kts | 236° |
| 2026-05-01 07:28 | -35.01882 | 150.01987 | 36655 ft | 464 kts | 236° |
| 2026-05-01 07:28 | -35.03738 | 149.98848 | 37436 ft | 458 kts | 236° |
| 2026-05-01 07:29 | -35.05593 | 149.95709 | 38070 ft | 454 kts | 236° |
| 2026-05-01 07:29 | -35.07433 | 149.92592 | 38314 ft | 458 kts | 236° |
| 2026-05-01 07:29 | -35.09292 | 149.89438 | 38329 ft | 459 kts | 236° |
| 2026-05-01 07:30 | -35.13038 | 149.83078 | 38333 ft | 456 kts | 236° |
| 2026-05-01 07:30 | -35.16752 | 149.76759 | 38338 ft | 456 kts | 236° |
| 2026-05-01 07:31 | -35.20436 | 149.70479 | 38340 ft | 456 kts | 236° |
| 2026-05-01 07:32 | -35.29700 | 149.54637 | 38350 ft | 455 kts | 236° |
| 2026-05-01 07:33 | -35.35210 | 149.45181 | 38352 ft | 457 kts | 237° |
| 2026-05-01 07:33 | -35.40738 | 149.35671 | 38350 ft | 456 kts | 236° |
| 2026-05-01 07:34 | -35.46264 | 149.26134 | 38355 ft | 458 kts | 237° |
| 2026-05-01 07:35 | -35.49960 | 149.19743 | 38355 ft | 457 kts | 237° |
| 2026-05-01 07:35 | -35.53624 | 149.13393 | 38352 ft | 458 kts | 237° |
| 2026-05-01 07:36 | -35.57325 | 149.06969 | 38361 ft | 458 kts | 237° |
| 2026-05-01 07:36 | -35.61005 | 149.00571 | 38362 ft | 457 kts | 237° |
| 2026-05-01 07:37 | -35.66513 | 148.90970 | 38369 ft | 458 kts | 237° |
| 2026-05-01 07:37 | -35.70181 | 148.84561 | 38377 ft | 457 kts | 237° |
| 2026-05-01 07:38 | -35.73831 | 148.78174 | 38378 ft | 457 kts | 237° |
| 2026-05-01 07:39 | -35.79321 | 148.68544 | 38370 ft | 457 kts | 237° |
| 2026-05-01 07:39 | -35.84761 | 148.58974 | 38366 ft | 456 kts | 237° |
| 2026-05-01 07:40 | -35.88407 | 148.52544 | 38360 ft | 457 kts | 237° |
| 2026-05-01 07:40 | -35.92025 | 148.46129 | 38361 ft | 458 kts | 237° |
| 2026-05-01 07:41 | -35.95659 | 148.39671 | 38359 ft | 458 kts | 238° |
| 2026-05-01 07:42 | -36.01099 | 148.29984 | 38355 ft | 456 kts | 238° |
| 2026-05-01 07:42 | -36.04702 | 148.23552 | 38349 ft | 456 kts | 238° |
| 2026-05-01 07:43 | -36.08313 | 148.17093 | 38338 ft | 455 kts | 238° |
| 2026-05-01 07:43 | -36.13717 | 148.07417 | 38313 ft | 455 kts | 238° |
| 2026-05-01 07:44 | -36.20916 | 147.94530 | 38308 ft | 456 kts | 238° |
| 2026-05-01 07:45 | -36.24511 | 147.88075 | 38303 ft | 456 kts | 238° |
| 2026-05-01 07:45 | -36.28109 | 147.81602 | 38311 ft | 456 kts | 238° |
| 2026-05-01 07:46 | -36.31678 | 147.75171 | 38326 ft | 455 kts | 238° |
| 2026-05-01 07:47 | -36.37059 | 147.65431 | 38332 ft | 456 kts | 238° |
| 2026-05-01 07:47 | -36.40634 | 147.58943 | 38330 ft | 453 kts | 238° |
| 2026-05-01 07:48 | -36.45982 | 147.49210 | 38327 ft | 455 kts | 239° |
| 2026-05-01 07:48 | -36.49553 | 147.42697 | 38324 ft | 454 kts | 239° |
| 2026-05-01 07:49 | -36.54871 | 147.32974 | 38336 ft | 453 kts | 239° |
| 2026-05-01 07:50 | -36.58408 | 147.26491 | 38339 ft | 454 kts | 239° |
| 2026-05-01 07:50 | -36.61929 | 147.20027 | 38115 ft | 449 kts | 239° |
| 2026-05-01 07:50 | -36.63670 | 147.16826 | 37739 ft | 451 kts | 239° |
| 2026-05-01 07:51 | -36.65457 | 147.13536 | 37340 ft | 454 kts | 239° |
| 2026-05-01 07:51 | -36.67220 | 147.10286 | 37039 ft | 455 kts | 239° |
| 2026-05-01 07:51 | -36.68988 | 147.07025 | 36817 ft | 454 kts | 239° |
| 2026-05-01 07:52 | -36.72528 | 147.00487 | 36414 ft | 452 kts | 239° |
| 2026-05-01 07:52 | -36.74277 | 146.97253 | 36144 ft | 453 kts | 239° |
| 2026-05-01 07:52 | -36.76040 | 146.93988 | 35879 ft | 454 kts | 239° |
| 2026-05-01 07:53 | -36.79573 | 146.87437 | 35427 ft | 454 kts | 238° |
| 2026-05-01 07:53 | -36.81321 | 146.84192 | 35164 ft | 452 kts | 238° |
| 2026-05-01 07:53 | -36.83060 | 146.80959 | 34472 ft | 451 kts | 238° |
| 2026-05-01 07:53 | -36.84836 | 146.77655 | 33524 ft | 454 kts | 238° |
| 2026-05-01 07:54 | -36.88343 | 146.71118 | 31603 ft | 457 kts | 238° |
| 2026-05-01 07:55 | -36.93584 | 146.61330 | 29870 ft | 462 kts | 238° |
| 2026-05-01 07:55 | -36.97133 | 146.54684 | 28716 ft | 459 kts | 238° |
| 2026-05-01 07:56 | -37.02370 | 146.44856 | 26969 ft | 449 kts | 238° |
| 2026-05-01 07:56 | -37.05830 | 146.38348 | 25775 ft | 444 kts | 239° |
| 2026-05-01 07:57 | -37.07536 | 146.35136 | 25181 ft | 440 kts | 239° |
| 2026-05-01 07:57 | -37.10888 | 146.28813 | 23973 ft | 434 kts | 240° |
| 2026-05-01 07:58 | -37.14205 | 146.22543 | 22759 ft | 429 kts | 240° |
| 2026-05-01 07:58 | -37.17477 | 146.16348 | 21545 ft | 422 kts | 240° |
| 2026-05-01 07:59 | -37.20683 | 146.10266 | 20336 ft | 415 kts | 240° |
| 2026-05-01 07:59 | -37.23845 | 146.04257 | 19125 ft | 408 kts | 240° |
| 2026-05-01 08:00 | -37.29963 | 145.92598 | 16751 ft | 395 kts | 240° |
| 2026-05-01 08:01 | -37.34457 | 145.84038 | 14966 ft | 387 kts | 240° |
| 2026-05-01 08:01 | -37.35946 | 145.81198 | 14362 ft | 385 kts | 240° |
| 2026-05-01 08:01 | -37.37405 | 145.78415 | 13775 ft | 383 kts | 240° |
| 2026-05-01 08:02 | -37.40319 | 145.72849 | 13286 ft | 381 kts | 239° |
| 2026-05-01 08:02 | -37.41777 | 145.70059 | 13258 ft | 374 kts | 239° |
| 2026-05-01 08:03 | -37.44619 | 145.64616 | 11997 ft | 371 kts | 239° |
| 2026-05-01 08:03 | -37.46051 | 145.61964 | 11723 ft | 358 kts | 237° |
| 2026-05-01 08:03 | -37.48913 | 145.57127 | 11493 ft | 328 kts | 236° |
| 2026-05-01 08:04 | -37.51490 | 145.52737 | 11411 ft | 299 kts | 237° |
| 2026-05-01 08:04 | -37.53942 | 145.48514 | 10785 ft | 295 kts | 237° |
| 2026-05-01 08:05 | -37.56346 | 145.44368 | 10142 ft | 292 kts | 237° |
| 2026-05-01 08:05 | -37.57547 | 145.42293 | 9822 ft | 291 kts | 237° |
| 2026-05-01 08:05 | -37.58750 | 145.40216 | 9499 ft | 289 kts | 237° |
| 2026-05-01 08:06 | -37.61095 | 145.36163 | 8990 ft | 283 kts | 237° |
| 2026-05-01 08:06 | -37.63447 | 145.32088 | 8252 ft | 285 kts | 238° |
| 2026-05-01 08:07 | -37.65780 | 145.28044 | 7658 ft | 281 kts | 237° |
| 2026-05-01 08:07 | -37.68059 | 145.24089 | 7062 ft | 279 kts | 238° |
| 2026-05-01 08:08 | -37.69206 | 145.22098 | 6747 ft | 278 kts | 238° |
| 2026-05-01 08:08 | -37.71469 | 145.18166 | 6171 ft | 275 kts | 238° |
| 2026-05-01 08:09 | -37.73710 | 145.14267 | 5761 ft | 265 kts | 238° |
| 2026-05-01 08:09 | -37.74790 | 145.12387 | 5561 ft | 262 kts | 238° |
| 2026-05-01 08:09 | -37.75848 | 145.10541 | 5304 ft | 261 kts | 238° |
| 2026-05-01 08:10 | -37.77988 | 145.06805 | 4783 ft | 260 kts | 238° |
| 2026-05-01 08:10 | -37.80098 | 145.03120 | 4247 ft | 259 kts | 238° |
| 2026-05-01 08:11 | -37.81658 | 144.99114 | 3708 ft | 251 kts | 261° |
| 2026-05-01 08:11 | -37.82404 | 144.94943 | 3419 ft | 235 kts | 263° |
| 2026-05-01 08:12 | -37.82927 | 144.91084 | 3312 ft | 213 kts | 269° |
| 2026-05-01 08:12 | -37.83039 | 144.89276 | 3236 ft | 200 kts | 284° |
| 2026-05-01 08:12 | -37.81417 | 144.86739 | 2944 ft | 189 kts | 340° |
| 2026-05-01 08:13 | -37.80174 | 144.86299 | 2630 ft | 177 kts | 352° |
| 2026-05-01 08:13 | -37.79033 | 144.86058 | 2468 ft | 152 kts | 354° |
| 2026-05-01 08:13 | -37.77184 | 144.85710 | 2477 ft | 126 kts | 355° |
| 2026-05-01 08:14 | -37.76329 | 144.85553 | 2406 ft | 128 kts | 354° |
| 2026-05-01 08:14 | -37.75471 | 144.85393 | 2279 ft | 125 kts | 354° |
| 2026-05-01 08:14 | -37.74624 | 144.85170 | 2092 ft | 123 kts | 354° |
| 2026-05-01 08:14 | -37.73772 | 144.85020 | 1854 ft | 122 kts | 359° |
| 2026-05-01 08:15 | -37.72926 | 144.84880 | 1562 ft | 123 kts | 356° |
| 2026-05-01 08:15 | -37.71224 | 144.84593 | 955 ft | 126 kts | 355° |
| 2026-05-01 08:15 | -37.70349 | 144.84427 | 824 ft | 130 kts | 357° |
| 2026-05-01 08:16 | -37.69454 | 144.84268 | 648 ft | 129 kts | 354° |
| 2026-05-01 08:16 | -37.68545 | 144.84097 | 469 ft | 133 kts | 355° |
| 2026-05-01 08:16 | -37.67733 | 144.83952 | 449 ft | 97 kts | 349° |
| 2026-05-01 08:16 | -37.67262 | 144.83856 | 449 ft | 18 kts | 351° |
| 2026-05-01 08:17 | -37.67121 | 144.83835 | 449 ft | 21 kts | 356° |
| 2026-05-01 08:17 | -37.66976 | 144.83852 | 449 ft | 17 kts | 12° |
| 2026-05-01 08:17 | -37.66883 | 144.83891 | 449 ft | 7 kts | 21° |
| 2026-05-01 08:17 | -37.66870 | 144.83897 | 449 ft | 0 kts | 21° |
| 2026-05-01 08:19 | -37.66853 | 144.83905 | 449 ft | 5 kts | 21° |
| 2026-05-01 08:19 | -37.66805 | 144.83929 | 449 ft | 9 kts | 22° |
| 2026-05-01 08:19 | -37.66738 | 144.83986 | 449 ft | 13 kts | 55° |
| 2026-05-01 08:20 | -37.66712 | 144.84117 | 449 ft | 17 kts | 82° |
| 2026-05-01 08:20 | -37.66694 | 144.84262 | 449 ft | 15 kts | 82° |
| 2026-05-01 08:20 | -37.66680 | 144.84378 | 449 ft | 0 kts | 81° |
| 2026-05-01 08:20 | -37.66678 | 144.84401 | 449 ft | 0 kts | 81° |
| 2026-05-01 08:21 | -37.66675 | 144.84425 | 449 ft | 5 kts | 82° |
| 2026-05-01 08:21 | -37.66668 | 144.84491 | 449 ft | 0 kts | 82° |
| 2026-05-01 08:21 | -37.66671 | 144.84515 | 449 ft | 4 kts | 117° |
| 2026-05-01 08:21 | -37.66710 | 144.84537 | 449 ft | 6 kts | 172° |
| 2026-05-01 08:22 | -37.66739 | 144.84541 | 449 ft | 4 kts | 172° |
| 2026-05-01 08:22 | -37.66756 | 144.84544 | 449 ft | 0 kts | 172° |